createdAt,value
2023-02-25T00:02:27.279Z,98780.13
2023-02-25T00:05:00.462Z,98770.41
2023-02-25T00:07:32.013Z,98783.25
2023-02-25T00:10:03.811Z,98772.22
2023-02-25T00:12:35.301Z,98771.78
2023-02-25T00:15:07.119Z,98766.38
2023-02-25T00:17:39.959Z,98757.66
2023-02-25T00:20:13.722Z,98766.28
2023-02-25T00:22:45.256Z,98754.00
2023-02-25T00:25:17.237Z,98750.75
2023-02-25T00:27:48.748Z,98754.00
2023-02-25T00:30:20.652Z,98752.59
2023-02-25T00:32:52.235Z,98748.00
2023-02-25T00:35:23.820Z,98771.13
2023-02-25T00:37:59.156Z,98751.44
2023-02-25T00:40:35.867Z,98758.03
2023-02-25T00:43:07.410Z,98791.22
2023-02-25T00:45:39.811Z,98801.44
2023-02-25T00:48:11.416Z,98797.91
2023-02-25T00:50:42.930Z,98781.09
2023-02-25T00:53:14.426Z,98783.13
2023-02-25T00:55:46.231Z,98788.94
2023-02-25T00:58:17.727Z,98785.50
2023-02-25T01:00:51.983Z,98785.50
2023-02-25T01:03:23.744Z,98778.78
2023-02-25T01:05:55.805Z,98780.88
2023-02-25T01:08:27.585Z,98784.31
2023-02-25T01:10:59.357Z,98773.38
2023-02-25T01:13:31.066Z,98773.97
2023-02-25T01:16:03.081Z,98766.66
2023-02-25T01:18:34.601Z,98770.25
2023-02-25T01:21:06.508Z,98771.22
2023-02-25T01:23:38.012Z,98768.75
2023-02-25T01:26:10.071Z,98767.31
2023-02-25T01:28:41.629Z,98771.97
2023-02-25T01:31:13.469Z,98768.50
2023-02-25T01:33:45.159Z,98772.16
2023-02-25T01:36:17.004Z,98774.13
2023-02-25T01:38:48.516Z,98771.88
2023-02-25T01:41:20.413Z,98769.66
2023-02-25T01:43:51.920Z,98763.59
2023-02-25T01:46:23.726Z,98763.47
2023-02-25T01:48:56.842Z,98760.19
2023-02-25T01:51:28.419Z,98771.53
2023-02-25T01:53:59.962Z,98774.38
2023-02-25T01:56:31.890Z,98770.56
2023-02-25T01:59:03.418Z,98774.81
2023-02-25T02:01:35.476Z,98772.16
2023-02-25T02:04:06.973Z,98767.94
2023-02-25T02:06:38.524Z,98778.47
2023-02-25T02:09:10.066Z,98773.19
2023-02-25T02:11:41.919Z,98778.47
2023-02-25T02:14:13.431Z,98769.16
2023-02-25T02:16:45.224Z,98775.25
2023-02-25T02:19:16.797Z,98775.59
2023-02-25T02:21:48.486Z,98776.19
2023-02-25T02:24:19.982Z,98784.91
2023-02-25T02:26:52.384Z,98774.59
2023-02-25T02:29:23.906Z,98779.25
2023-02-25T02:31:55.805Z,98782.91
2023-02-25T02:34:27.414Z,98777.44
2023-02-25T02:36:59.289Z,98780.28
2023-02-25T02:39:30.804Z,98778.59
2023-02-25T02:42:02.691Z,98772.16
2023-02-25T02:44:34.196Z,98780.06
2023-02-25T02:47:06.993Z,98778.25
2023-02-25T02:49:38.504Z,98774.72
2023-02-25T02:52:15.378Z,98777.59
2023-02-25T02:54:46.922Z,98781.47
2023-02-25T02:57:18.736Z,98777.59
2023-02-25T02:59:50.245Z,98778.03
2023-02-25T03:02:22.901Z,98784.53
2023-02-25T03:04:54.404Z,98788.97
2023-02-25T03:07:25.917Z,98785.69
2023-02-25T03:09:57.450Z,98803.69
2023-02-25T03:12:30.153Z,98793.81
2023-02-25T03:15:01.657Z,98788.63
2023-02-25T03:17:33.404Z,98790.28
2023-02-25T03:20:05.037Z,98797.81
2023-02-25T03:22:36.896Z,98813.59
2023-02-25T03:25:08.399Z,98817.47
2023-02-25T03:27:40.199Z,98818.50
2023-02-25T03:30:13.026Z,98822.28
2023-02-25T03:32:44.985Z,98827.63
2023-02-25T03:35:16.527Z,98830.63
2023-02-25T03:37:48.541Z,98835.66
2023-02-25T03:40:20.085Z,98837.28
2023-02-25T03:42:51.909Z,98836.09
2023-02-25T03:45:23.421Z,98847.06
2023-02-25T03:47:55.280Z,98845.03
2023-02-25T03:50:26.836Z,98853.13
2023-02-25T03:52:59.037Z,98846.47
2023-02-25T03:55:30.524Z,98852.09
2023-02-25T03:58:03.103Z,98847.84
2023-02-25T04:00:34.595Z,98863.22
2023-02-25T04:03:06.412Z,98869.44
2023-02-25T04:05:37.888Z,98866.06
2023-02-25T04:08:16.178Z,98877.41
2023-02-25T04:10:48.260Z,98882.66
2023-02-25T04:13:20.844Z,98885.56
2023-02-25T04:15:52.575Z,98882.13
2023-02-25T04:18:24.904Z,98885.78
2023-02-25T04:20:56.761Z,98896.28
2023-02-25T04:23:28.275Z,98894.34
2023-02-25T04:25:59.794Z,98906.47
2023-02-25T04:28:31.292Z,98903.84
2023-02-25T04:31:03.289Z,98903.28
2023-02-25T04:33:34.827Z,98893.00
2023-02-25T04:36:06.706Z,98912.63
2023-02-25T04:38:38.218Z,98907.38
2023-02-25T04:41:10.124Z,98915.47
2023-02-25T04:43:41.616Z,98904.94
2023-02-25T04:46:13.571Z,98911.59
2023-02-25T04:48:45.085Z,98896.44
2023-02-25T04:51:16.925Z,98918.72
2023-02-25T04:53:48.422Z,98916.69
2023-02-25T04:56:20.358Z,98919.75
2023-02-25T04:58:51.883Z,98923.56
2023-02-25T05:01:23.440Z,98929.41
2023-02-25T05:03:56.940Z,98930.06
2023-02-25T05:06:28.632Z,98928.22
2023-02-25T05:09:00.125Z,98938.31
2023-02-25T05:11:31.806Z,98936.13
2023-02-25T05:14:03.335Z,98937.13
2023-02-25T05:16:35.233Z,98939.53
2023-02-25T05:19:07.096Z,98944.81
2023-02-25T05:21:38.922Z,98944.38
2023-02-25T05:24:10.430Z,98949.69
2023-02-25T05:26:42.205Z,98938.94
2023-02-25T05:29:13.711Z,98684.75
2023-02-25T05:31:45.736Z,98953.09
2023-02-25T05:34:17.558Z,98961.22
2023-02-25T05:36:49.492Z,98957.38
2023-02-25T05:39:20.998Z,98964.06
2023-02-25T05:41:52.836Z,98975.59
2023-02-25T05:44:25.014Z,98974.41
2023-02-25T05:46:57.063Z,98970.38
2023-02-25T05:49:28.569Z,98984.13
2023-02-25T05:52:00.237Z,98991.19
2023-02-25T05:54:31.733Z,98996.25
2023-02-25T05:57:03.587Z,99000.69
2023-02-25T05:59:36.772Z,98996.25
2023-02-25T06:02:08.605Z,99011.00
2023-02-25T06:04:40.158Z,99013.03
2023-02-25T06:07:11.832Z,99018.50
2023-02-25T06:09:43.859Z,99020.94
2023-02-25T06:12:15.634Z,99022.56
2023-02-25T06:14:47.365Z,99029.84
2023-02-25T06:17:19.318Z,99032.88
2023-02-25T06:19:51.329Z,99035.69
2023-02-25T06:22:23.132Z,99053.47
2023-02-25T06:24:54.620Z,99063.38
2023-02-25T06:27:26.135Z,99059.34
2023-02-25T06:30:00.233Z,99066.19
2023-02-25T06:32:32.176Z,99073.25
2023-02-25T06:35:03.749Z,99074.47
2023-02-25T06:37:35.631Z,99079.50
2023-02-25T06:40:07.859Z,99080.91
2023-02-25T06:42:39.723Z,99091.22
2023-02-25T06:45:11.228Z,99094.06
2023-02-25T06:47:43.248Z,99104.19
2023-02-25T06:50:14.792Z,99103.13
2023-02-25T06:52:46.585Z,99108.41
2023-02-25T06:55:18.117Z,99112.06
2023-02-25T06:57:49.992Z,98941.84
2023-02-25T07:00:21.495Z,99120.13
2023-02-25T07:02:53.345Z,99134.50
2023-02-25T07:05:24.924Z,99142.19
2023-02-25T07:07:56.858Z,99140.56
2023-02-25T07:10:28.356Z,99153.09
2023-02-25T07:13:00.365Z,99153.09
2023-02-25T07:15:31.886Z,99158.56
2023-02-25T07:18:03.820Z,99151.88
2023-02-25T07:20:35.327Z,99155.97
2023-02-25T07:23:07.164Z,99166.28
2023-02-25T07:25:38.682Z,99169.69
2023-02-25T07:28:10.589Z,99162.00
2023-02-25T07:30:42.195Z,99168.91
2023-02-25T07:33:13.804Z,99167.69
2023-02-25T07:35:45.389Z,99178.19
2023-02-25T07:38:17.383Z,99187.09
2023-02-25T07:40:48.881Z,99178.41
2023-02-25T07:43:20.399Z,99191.97
2023-02-25T07:45:52.015Z,99198.84
2023-02-25T07:48:23.592Z,99206.09
2023-02-25T07:50:55.379Z,99202.88
2023-02-25T07:53:26.950Z,99212.19
2023-02-25T07:55:58.446Z,99208.94
2023-02-25T07:58:30.039Z,99208.16
2023-02-25T08:01:03.364Z,99225.34
2023-02-25T08:03:35.298Z,99229.19
2023-02-25T08:06:08.196Z,99229.38
2023-02-25T08:08:40.104Z,99234.22
2023-02-25T08:11:11.610Z,99234.41
2023-02-25T08:13:43.556Z,99243.34
2023-02-25T08:16:15.186Z,99241.13
2023-02-25T08:18:47.363Z,99245.16
2023-02-25T08:21:18.917Z,99244.97
2023-02-25T08:23:50.719Z,99252.25
2023-02-25T08:26:22.623Z,99259.72
2023-02-25T08:28:54.529Z,99263.97
2023-02-25T08:31:26.583Z,99263.16
2023-02-25T08:33:59.733Z,99276.53
2023-02-25T08:36:31.312Z,99270.84
2023-02-25T08:39:02.917Z,99281.53
2023-02-25T08:41:34.433Z,99280.78
2023-02-25T08:44:06.421Z,99298.38
2023-02-25T08:46:38.025Z,99289.66
2023-02-25T08:49:09.762Z,99282.59
2023-02-25T08:51:41.297Z,99303.22
2023-02-25T08:54:12.872Z,99307.88
2023-02-25T08:56:44.584Z,99300.00
2023-02-25T08:59:17.207Z,99314.56
2023-02-25T09:01:49.049Z,99320.03
2023-02-25T09:04:21.565Z,99319.41
2023-02-25T09:06:54.183Z,99330.34
2023-02-25T09:09:25.774Z,99335.81
2023-02-25T09:11:57.336Z,99340.25
2023-02-25T09:14:29.099Z,99346.06
2023-02-25T09:17:00.595Z,99349.56
2023-02-25T09:19:32.387Z,99348.16
2023-02-25T09:22:04.152Z,99355.44
2023-02-25T09:24:35.736Z,99362.91
2023-02-25T09:27:08.170Z,99367.38
2023-02-25T09:29:40.099Z,99377.75
2023-02-25T09:32:11.808Z,99380.13
2023-02-25T09:34:43.710Z,99381.38
2023-02-25T09:37:15.220Z,99381.38
2023-02-25T09:39:47.098Z,99394.94
2023-02-25T09:42:18.619Z,99388.44
2023-02-25T09:44:50.593Z,99392.66
2023-02-25T09:47:22.177Z,99392.69
2023-02-25T09:49:53.702Z,99388.88
2023-02-25T09:52:26.559Z,99396.91
2023-02-25T09:54:59.481Z,99401.53
2023-02-25T09:57:32.057Z,99409.31
2023-02-25T10:00:12.984Z,99407.69
2023-02-25T10:02:44.608Z,99412.34
2023-02-25T10:05:16.737Z,99414.19
2023-02-25T10:07:48.278Z,99424.31
2023-02-25T10:10:19.868Z,99436.69
2023-02-25T10:12:51.546Z,99438.72
2023-02-25T10:15:23.167Z,99440.94
2023-02-25T10:17:54.682Z,99451.69
2023-02-25T10:20:26.275Z,99440.50
2023-02-25T10:22:57.818Z,99446.16
2023-02-25T10:25:30.241Z,99460.06
2023-02-25T10:28:01.854Z,99469.06
2023-02-25T10:30:33.470Z,99477.50
2023-02-25T10:33:05.746Z,99473.13
2023-02-25T10:35:37.550Z,99469.38
2023-02-25T10:38:09.122Z,99477.25
2023-02-25T10:40:41.192Z,99490.06
2023-02-25T10:43:12.695Z,99496.44
2023-02-25T10:45:44.449Z,99486.56
2023-02-25T10:48:16.227Z,99484.69
2023-02-25T10:50:48.052Z,99495.13
2023-02-25T10:53:19.610Z,99496.00
2023-02-25T10:55:55.147Z,99506.03
2023-02-25T10:58:27.071Z,99495.28
2023-02-25T11:00:59.071Z,99498.66
2023-02-25T11:03:30.590Z,99512.88
2023-02-25T11:06:02.300Z,99509.38
2023-02-25T11:08:33.810Z,99510.63
2023-02-25T11:11:05.607Z,99517.34
2023-02-25T11:13:37.367Z,99515.72
2023-02-25T11:16:09.303Z,99523.19
2023-02-25T11:18:40.851Z,99524.63
2023-02-25T11:21:13.750Z,99526.28
2023-02-25T11:23:45.367Z,99529.75
2023-02-25T11:26:17.035Z,99533.63
2023-02-25T11:28:48.794Z,99549.13
2023-02-25T11:31:20.710Z,99534.31
2023-02-25T11:33:52.523Z,99542.44
2023-02-25T11:36:24.354Z,99544.88
2023-02-25T11:38:56.162Z,99548.34
2023-02-25T11:41:27.695Z,99541.06
2023-02-25T11:44:01.761Z,99545.50
2023-02-25T11:46:35.133Z,99555.06
2023-02-25T11:49:06.666Z,99566.59
2023-02-25T11:51:38.670Z,99560.53
2023-02-25T11:54:10.501Z,99555.66
2023-02-25T11:56:43.841Z,99558.69
2023-02-25T11:59:15.740Z,99567.81
2023-02-25T12:01:47.321Z,99568.47
2023-02-25T12:04:19.393Z,99574.38
2023-02-25T12:06:50.940Z,99576.19
2023-02-25T12:09:23.005Z,99575.94
2023-02-25T12:11:54.533Z,99578.47
2023-02-25T12:14:26.080Z,99587.91
2023-02-25T12:16:58.705Z,99595.38
2023-02-25T12:19:30.246Z,99592.91
2023-02-25T12:22:01.765Z,99592.31
2023-02-25T12:24:33.653Z,99608.03
2023-02-25T12:27:05.178Z,99611.69
2023-02-25T12:29:36.959Z,99618.47
2023-02-25T12:32:08.642Z,99623.38
2023-02-25T12:34:40.551Z,99627.13
2023-02-25T12:37:12.300Z,99624.00
2023-02-25T12:39:44.594Z,99635.59
2023-02-25T12:42:16.107Z,99634.41
2023-02-25T12:44:47.965Z,99637.78
2023-02-25T12:47:19.502Z,99654.41
2023-02-25T12:49:51.368Z,99652.25
2023-02-25T12:52:23.230Z,99658.19
2023-02-25T12:54:54.762Z,99653.69
2023-02-25T12:57:26.272Z,99654.81
2023-02-25T12:59:58.255Z,99674.13
2023-02-25T13:02:29.797Z,99674.03
2023-02-25T13:05:01.623Z,99690.53
2023-02-25T13:07:33.171Z,99677.41
2023-02-25T13:10:05.042Z,99685.84
2023-02-25T13:12:36.613Z,99690.56
2023-02-25T13:15:08.513Z,99699.78
2023-02-25T13:17:40.039Z,99698.38
2023-02-25T13:20:11.837Z,99699.63
2023-02-25T13:22:43.339Z,99699.59
2023-02-25T13:25:19.906Z,99714.03
2023-02-25T13:27:53.580Z,99705.59
2023-02-25T13:30:25.495Z,99706.56
2023-02-25T13:32:57.044Z,99717.94
2023-02-25T13:35:29.200Z,99715.88
2023-02-25T13:38:02.059Z,99608.88
2023-02-25T13:40:33.915Z,99725.00
2023-02-25T13:43:05.403Z,99728.03
2023-02-25T13:45:37.177Z,99738.56
2023-02-25T13:48:08.711Z,99737.50
2023-02-25T13:50:40.414Z,99753.78
2023-02-25T13:53:11.910Z,99745.41
2023-02-25T13:55:43.455Z,99758.13
2023-02-25T13:58:15.002Z,99758.44
2023-02-25T14:00:46.878Z,99758.63
2023-02-25T14:03:18.397Z,99758.31
2023-02-25T14:05:50.157Z,99758.59
2023-02-25T14:08:21.675Z,99763.16
2023-02-25T14:10:53.545Z,99768.72
2023-02-25T14:13:25.092Z,99784.88
2023-02-25T14:15:57.019Z,99790.56
2023-02-25T14:18:29.403Z,99795.72
2023-02-25T14:21:01.182Z,99800.06
2023-02-25T14:23:32.736Z,99799.34
2023-02-25T14:26:04.611Z,99810.84
2023-02-25T14:28:36.168Z,99814.91
2023-02-25T14:31:08.058Z,99819.00
2023-02-25T14:33:39.635Z,99817.63
2023-02-25T14:36:13.740Z,99820.44
2023-02-25T14:38:45.257Z,99548.38
2023-02-25T14:41:17.083Z,99855.00
2023-02-25T14:43:49.201Z,99846.28
2023-02-25T14:46:20.812Z,99850.94
2023-02-25T14:48:52.343Z,99853.94
2023-02-25T14:51:24.243Z,99830.69
2023-02-25T14:53:56.007Z,99854.16
2023-02-25T14:56:27.685Z,99859.25
2023-02-25T14:58:59.192Z,99859.88
2023-02-25T15:01:30.753Z,99848.53
2023-02-25T15:04:02.267Z,99863.06
2023-02-25T15:06:34.083Z,99868.63
2023-02-25T15:09:05.619Z,99872.19
2023-02-25T15:11:37.646Z,99869.75
2023-02-25T15:14:09.374Z,99876.72
2023-02-25T15:16:41.922Z,99878.94
2023-02-25T15:19:13.438Z,99892.78
2023-02-25T15:21:46.846Z,99900.41
2023-02-25T15:24:18.374Z,99894.34
2023-02-25T15:26:50.284Z,99903.38
2023-02-25T15:29:21.816Z,99909.91
2023-02-25T15:31:53.821Z,99921.31
2023-02-25T15:34:25.377Z,99916.34
2023-02-25T15:36:57.212Z,99930.13
2023-02-25T15:39:28.730Z,99925.16
2023-02-25T15:42:00.653Z,99937.84
2023-02-25T15:44:32.176Z,99942.28
2023-02-25T15:47:04.057Z,99934.38
2023-02-25T15:49:35.615Z,99938.91
2023-02-25T15:52:07.368Z,99951.16
2023-02-25T15:54:38.883Z,99960.03
2023-02-25T15:57:10.778Z,99959.50
2023-02-25T15:59:42.341Z,99960.13
2023-02-25T16:02:14.224Z,99964.91
2023-02-25T16:04:45.842Z,99965.56
2023-02-25T16:07:17.732Z,99974.06
2023-02-25T16:09:50.689Z,99975.81
2023-02-25T16:12:22.609Z,99982.94
2023-02-25T16:14:54.115Z,99988.72
2023-02-25T16:17:25.628Z,99999.66
2023-02-25T16:19:57.126Z,100003.91
2023-02-25T16:22:28.707Z,100003.44
2023-02-25T16:25:01.760Z,100013.16
2023-02-25T16:27:33.627Z,100015.91
2023-02-25T16:30:05.166Z,100025.13
2023-02-25T16:32:37.145Z,100027.91
2023-02-25T16:35:08.716Z,100030.09
2023-02-25T16:37:40.597Z,100040.78
2023-02-25T16:40:12.208Z,100042.25
2023-02-25T16:42:43.925Z,100049.63
2023-02-25T16:45:15.434Z,100058.47
2023-02-25T16:47:47.316Z,100066.19
2023-02-25T16:50:18.850Z,100063.56
2023-02-25T16:52:50.911Z,100071.59
2023-02-25T16:55:22.900Z,100076.69
2023-02-25T16:57:54.731Z,100079.31
2023-02-25T17:00:26.290Z,100080.28
2023-02-25T17:02:58.120Z,100085.06
2023-02-25T17:05:29.659Z,100100.63
2023-02-25T17:08:02.355Z,100103.06
2023-02-25T17:10:33.861Z,100108.66
2023-02-25T17:13:05.787Z,100103.25
2023-02-25T17:15:37.898Z,100109.31
2023-02-25T17:18:09.556Z,100120.13
2023-02-25T17:20:41.486Z,100126.03
2023-02-25T17:23:13.051Z,100122.06
2023-02-25T17:25:44.944Z,100130.78
2023-02-25T17:28:16.461Z,100133.88
2023-02-25T17:30:48.358Z,100133.22
2023-02-25T17:33:21.680Z,100141.75
2023-02-25T17:35:53.749Z,100143.72
2023-02-25T17:38:25.489Z,100154.88
2023-02-25T17:40:57.479Z,100154.53
2023-02-25T17:43:28.991Z,100158.97
2023-02-25T17:46:01.497Z,100164.38
2023-02-25T17:48:33.116Z,100164.06
2023-02-25T17:51:06.058Z,100166.84
2023-02-25T17:53:38.304Z,100171.59
2023-02-25T17:56:09.838Z,100171.94
2023-02-25T17:58:41.341Z,100178.47
2023-02-25T18:01:13.204Z,100182.41
2023-02-25T18:03:44.900Z,100182.41
2023-02-25T18:06:16.766Z,100199.78
2023-02-25T18:08:48.271Z,100189.47
2023-02-25T18:11:20.141Z,100201.25
2023-02-25T18:13:51.652Z,100200.75
2023-02-25T18:16:23.482Z,100220.44
2023-02-25T18:18:55.394Z,100206.16
2023-02-25T18:21:26.973Z,100209.44
2023-02-25T18:23:58.547Z,100212.06
2023-02-25T18:26:30.339Z,100221.56
2023-02-25T18:29:01.832Z,100217.66
2023-02-25T18:31:34.995Z,100233.22
2023-02-25T18:34:06.491Z,100230.75
2023-02-25T18:36:38.672Z,100232.72
2023-02-25T18:39:10.190Z,100232.91
2023-02-25T18:41:42.063Z,100236.16
2023-02-25T18:44:13.631Z,100237.00
2023-02-25T18:46:45.621Z,100244.19
2023-02-25T18:49:17.231Z,100239.44
2023-02-25T18:51:49.078Z,100238.63
2023-02-25T18:54:20.634Z,100245.69
2023-02-25T18:56:52.613Z,100246.66
2023-02-25T18:59:24.141Z,100260.25
2023-02-25T19:01:56.010Z,100256.81
2023-02-25T19:04:27.585Z,100257.28
2023-02-25T19:06:59.289Z,100265.66
2023-02-25T19:09:30.816Z,100268.59
2023-02-25T19:12:02.655Z,100276.31
2023-02-25T19:14:34.230Z,100274.00
2023-02-25T19:17:06.629Z,100280.41
2023-02-25T19:19:38.158Z,100285.94
2023-02-25T19:22:10.059Z,100287.25
2023-02-25T19:24:41.585Z,100297.09
2023-02-25T19:27:14.102Z,100299.41
2023-02-25T19:29:45.736Z,100298.38
2023-02-25T19:32:17.853Z,100298.41
2023-02-25T19:34:49.696Z,100304.97
2023-02-25T19:37:21.644Z,100314.00
2023-02-25T19:39:53.180Z,100310.53
2023-02-25T19:42:24.755Z,100313.81
2023-02-25T19:44:56.265Z,100323.81
2023-02-25T19:47:27.775Z,100323.81
2023-02-25T19:49:59.291Z,100320.22
2023-02-25T19:52:30.832Z,100329.06
2023-02-25T19:55:02.404Z,100342.50
2023-02-25T19:57:34.360Z,100336.06
2023-02-25T20:00:07.346Z,100352.66
2023-02-25T20:02:40.474Z,100348.53
2023-02-25T20:05:12.039Z,100348.72
2023-02-25T20:07:44.353Z,100351.47
2023-02-25T20:10:15.870Z,100347.72
2023-02-25T20:12:47.425Z,100356.09
2023-02-25T20:15:19.040Z,100361.03
2023-02-25T20:17:55.099Z,100358.72
2023-02-25T20:20:26.696Z,100367.34
2023-02-25T20:22:58.229Z,100373.13
2023-02-25T20:25:29.722Z,100368.50
2023-02-25T20:28:01.728Z,100369.00
2023-02-25T20:30:33.409Z,100381.66
2023-02-25T20:33:04.941Z,100370.84
2023-02-25T20:35:36.465Z,100381.00
2023-02-25T20:38:08.273Z,100382.91
2023-02-25T20:40:39.974Z,100384.88
2023-02-25T20:43:11.800Z,100389.75
2023-02-25T20:45:43.824Z,100387.47
2023-02-25T20:48:15.368Z,100394.69
2023-02-25T20:50:46.937Z,100402.22
2023-02-25T20:53:18.470Z,100397.59
2023-02-25T20:55:49.973Z,100401.53
2023-02-25T20:58:21.786Z,100417.41
2023-02-25T21:00:53.352Z,100411.69
2023-02-25T21:03:24.911Z,100414.63
2023-02-25T21:05:56.427Z,100266.53
2023-02-25T21:08:27.980Z,100419.19
2023-02-25T21:10:59.510Z,100425.38
2023-02-25T21:13:31.029Z,100420.16
2023-02-25T21:16:02.576Z,100268.75
2023-02-25T21:18:34.467Z,100428.69
2023-02-25T21:21:06.030Z,100437.50
2023-02-25T21:23:37.825Z,100430.00
2023-02-25T21:26:09.351Z,100427.69
2023-02-25T21:28:46.266Z,100439.47
2023-02-25T21:31:18.319Z,100446.34
2023-02-25T21:33:50.009Z,100447.81
2023-02-25T21:36:21.598Z,100456.09
2023-02-25T21:38:53.377Z,100460.50
2023-02-25T21:41:24.895Z,100454.28
2023-02-25T21:43:57.504Z,100462.06
2023-02-25T21:46:29.088Z,100454.84
2023-02-25T21:49:00.984Z,100460.81
2023-02-25T21:51:32.541Z,100464.94
2023-02-25T21:54:05.863Z,100472.31
2023-02-25T21:56:37.557Z,100472.13
2023-02-25T21:59:09.827Z,100474.06
2023-02-25T22:01:41.423Z,100466.97
2023-02-25T22:04:13.357Z,100463.25
2023-02-25T22:06:46.962Z,100477.66
2023-02-25T22:09:20.116Z,100478.34
2023-02-25T22:11:51.754Z,100476.66
2023-02-25T22:14:24.670Z,100480.41
2023-02-25T22:16:56.154Z,100478.59
2023-02-25T22:19:27.677Z,100483.53
2023-02-25T22:21:59.698Z,100491.38
2023-02-25T22:24:31.221Z,100480.56
2023-02-25T22:27:03.021Z,100493.50
2023-02-25T22:29:34.503Z,100498.53
2023-02-25T22:32:06.142Z,100494.56
2023-02-25T22:34:37.652Z,100499.19
2023-02-25T22:37:09.642Z,100505.59
2023-02-25T22:39:41.201Z,100508.22
2023-02-25T22:42:12.778Z,100512.28
2023-02-25T22:44:44.394Z,100513.47
2023-02-25T22:47:16.329Z,100522.13
2023-02-25T22:49:47.869Z,100525.72
2023-02-25T22:52:19.790Z,100529.94
2023-02-25T22:54:51.271Z,100530.16
2023-02-25T22:57:22.970Z,100539.50
2023-02-25T22:59:54.487Z,100536.94
2023-02-25T23:02:26.035Z,100549.34
2023-02-25T23:04:57.569Z,100544.06
2023-02-25T23:07:29.063Z,100552.28
2023-02-25T23:10:00.548Z,100551.97
2023-02-25T23:12:32.479Z,100564.34
2023-02-25T23:15:04.132Z,100554.59
2023-02-25T23:17:36.037Z,100558.50
2023-02-25T23:20:09.950Z,100554.06
2023-02-25T23:22:41.682Z,100560.19
2023-02-25T23:25:13.195Z,100558.56
2023-02-25T23:27:45.044Z,100560.13
2023-02-25T23:30:16.595Z,100564.84
2023-02-25T23:32:48.460Z,100571.53
2023-02-25T23:35:19.950Z,100580.72
2023-02-25T23:37:51.720Z,100581.84
2023-02-25T23:40:23.248Z,100587.91
2023-02-25T23:42:55.311Z,100588.88
2023-02-25T23:45:27.485Z,100586.94
2023-02-25T23:47:59.373Z,100600.84
2023-02-25T23:50:30.902Z,100603.63
2023-02-25T23:53:02.803Z,100602.66
2023-02-25T23:55:34.312Z,100610.34
2023-02-25T23:58:05.880Z,100610.97
